createdAt,value
2023-01-07T00:01:48.674Z,10.11
2023-01-07T00:04:16.401Z,10.03
2023-01-07T00:06:44.959Z,9.98
2023-01-07T00:09:14.829Z,9.96
2023-01-07T00:11:41.819Z,10.03
2023-01-07T00:14:11.111Z,10.02
2023-01-07T00:16:39.169Z,10.06
2023-01-07T00:19:07.457Z,10.02
2023-01-07T00:21:34.319Z,10.00
2023-01-07T00:24:04.146Z,9.93
2023-01-07T00:26:33.285Z,9.95
2023-01-07T00:29:00.475Z,9.92
2023-01-07T00:31:30.319Z,9.90
2023-01-07T00:33:57.254Z,9.84
2023-01-07T00:36:26.646Z,9.87
2023-01-07T00:39:15.550Z,9.85
2023-01-07T00:42:02.638Z,9.95
2023-01-07T00:44:30.253Z,9.94
2023-01-07T00:46:58.394Z,9.90
2023-01-07T00:49:25.307Z,9.99
2023-01-07T00:51:52.423Z,9.99
2023-01-07T00:54:19.150Z,9.89
2023-01-07T00:56:45.867Z,9.80
2023-01-07T00:59:12.793Z,9.82
2023-01-07T01:01:39.581Z,9.87
2023-01-07T01:04:08.417Z,9.94
2023-01-07T01:06:35.350Z,9.89
2023-01-07T01:09:02.384Z,9.92
2023-01-07T01:11:29.173Z,9.98
2023-01-07T01:13:55.842Z,9.98
2023-01-07T01:16:24.188Z,9.97
2023-01-07T01:18:51.413Z,10.05
2023-01-07T01:21:19.098Z,10.01
2023-01-07T01:23:45.864Z,10.05
2023-01-07T01:26:15.885Z,10.02
2023-01-07T01:28:43.811Z,10.01
2023-01-07T01:31:10.931Z,10.05
2023-01-07T01:33:37.594Z,10.05
2023-01-07T01:36:06.077Z,10.03
2023-01-07T01:38:32.850Z,10.03
2023-01-07T01:40:59.903Z,10.11
2023-01-07T01:43:37.406Z,10.13
2023-01-07T01:46:15.198Z,10.09
2023-01-07T01:48:49.428Z,10.06
2023-01-07T01:51:16.142Z,10.02
2023-01-07T01:53:43.599Z,10.11
2023-01-07T01:56:20.453Z,10.07
2023-01-07T01:58:53.732Z,10.08
2023-01-07T02:01:20.554Z,10.01
2023-01-07T02:03:48.118Z,9.97
2023-01-07T02:06:22.003Z,10.05
2023-01-07T02:08:48.787Z,9.98
2023-01-07T02:11:34.412Z,10.00
2023-01-07T02:14:12.993Z,10.06
2023-01-07T02:17:05.127Z,10.10
2023-01-07T02:20:09.147Z,10.07
2023-01-07T02:23:13.516Z,10.06
2023-01-07T02:26:06.346Z,10.05
2023-01-07T02:29:10.526Z,10.08
2023-01-07T02:32:24.021Z,10.12
2023-01-07T02:35:16.656Z,10.09
2023-01-07T02:37:58.339Z,10.08
2023-01-07T02:40:36.031Z,10.08
2023-01-07T02:43:46.145Z,10.11
2023-01-07T02:46:51.409Z,10.08
2023-01-07T02:49:18.253Z,10.04
2023-01-07T02:51:47.089Z,10.08
2023-01-07T02:54:20.978Z,10.08
2023-01-07T02:57:01.544Z,10.09
2023-01-07T02:59:47.273Z,10.11
2023-01-07T03:02:45.032Z,10.07
2023-01-07T03:05:47.336Z,10.02
2023-01-07T03:08:40.298Z,10.03
2023-01-07T03:11:10.232Z,10.08
2023-01-07T03:13:42.497Z,10.07
2023-01-07T03:16:19.710Z,10.12
2023-01-07T03:18:56.173Z,10.14
2023-01-07T03:21:24.591Z,10.10
2023-01-07T03:23:53.367Z,10.09
2023-01-07T03:26:24.015Z,10.10
2023-01-07T03:28:51.783Z,10.16
2023-01-07T03:31:19.040Z,10.09
2023-01-07T03:34:15.182Z,10.14
2023-01-07T03:36:49.358Z,10.14
2023-01-07T03:39:16.592Z,10.06
2023-01-07T03:42:01.831Z,10.10
2023-01-07T03:44:28.535Z,10.10
2023-01-07T03:46:55.588Z,10.01
2023-01-07T03:49:22.282Z,10.04
2023-01-07T03:51:49.661Z,10.03
2023-01-07T03:54:16.888Z,10.06
2023-01-07T03:56:43.575Z,10.05
2023-01-07T03:59:10.253Z,10.13
2023-01-07T04:01:37.186Z,10.10
2023-01-07T04:04:04.229Z,10.05
2023-01-07T04:06:30.983Z,10.03
2023-01-07T04:08:57.624Z,10.02
2023-01-07T04:11:24.341Z,10.08
2023-01-07T04:13:51.065Z,10.04
2023-01-07T04:16:17.902Z,10.05
2023-01-07T04:18:44.858Z,10.10
2023-01-07T04:21:11.655Z,10.14
2023-01-07T04:23:38.296Z,10.07
2023-01-07T04:26:05.521Z,10.06
2023-01-07T04:28:32.218Z,10.10
2023-01-07T04:34:15.670Z,10.09
2023-01-07T04:36:42.399Z,10.07
2023-01-07T04:39:09.069Z,10.00
2023-01-07T04:41:35.730Z,10.02
2023-01-07T04:44:02.516Z,10.02
2023-01-07T04:46:29.164Z,9.97
2023-01-07T04:48:55.874Z,10.00
2023-01-07T04:51:22.693Z,10.02
2023-01-07T04:53:49.351Z,9.98
2023-01-07T04:56:16.173Z,10.03
2023-01-07T04:58:43.971Z,10.00
2023-01-07T05:01:11.910Z,10.02
2023-01-07T05:03:38.678Z,10.01
2023-01-07T05:06:05.667Z,10.02
2023-01-07T05:08:32.449Z,10.01
2023-01-07T05:11:00.223Z,10.04
2023-01-07T05:13:26.911Z,10.05
2023-01-07T05:15:53.978Z,10.06
2023-01-07T05:18:20.718Z,10.09
2023-01-07T05:20:50.296Z,10.04
2023-01-07T05:23:16.949Z,10.04
2023-01-07T05:25:43.585Z,10.03
2023-01-07T05:28:12.259Z,10.05
2023-01-07T05:30:39.776Z,10.04
2023-01-07T05:33:07.504Z,10.03
2023-01-07T05:35:35.147Z,10.06
2023-01-07T05:38:01.791Z,10.02
2023-01-07T05:40:28.638Z,10.00
2023-01-07T05:42:55.553Z,9.97
2023-01-07T05:45:22.209Z,9.98
2023-01-07T05:47:49.769Z,10.03
2023-01-07T05:50:16.438Z,10.02
2023-01-07T05:52:43.085Z,10.01
2023-01-07T05:55:09.777Z,9.99
2023-01-07T05:57:36.459Z,9.92
2023-01-07T06:00:04.423Z,9.94
2023-01-07T06:02:31.485Z,9.87
2023-01-07T06:04:58.134Z,9.92
2023-01-07T06:07:24.787Z,9.99
2023-01-07T06:09:51.436Z,10.02
2023-01-07T06:12:18.310Z,9.97
2023-01-07T06:14:45.217Z,9.98
2023-01-07T06:17:11.880Z,10.01
2023-01-07T06:19:39.170Z,10.04
2023-01-07T06:22:05.959Z,10.00
2023-01-07T06:24:32.612Z,9.99
2023-01-07T06:26:59.200Z,10.00
2023-01-07T06:29:25.940Z,10.03
2023-01-07T06:31:52.675Z,10.04
2023-01-07T06:34:19.341Z,9.98
2023-01-07T06:36:46.370Z,9.98
2023-01-07T06:39:13.211Z,9.93
2023-01-07T06:41:39.799Z,9.95
2023-01-07T06:44:06.556Z,9.90
2023-01-07T06:46:33.320Z,9.95
2023-01-07T06:49:00.175Z,9.99
2023-01-07T06:51:26.756Z,9.97
2023-01-07T06:53:53.458Z,9.98
2023-01-07T06:56:20.103Z,9.99
2023-01-07T06:58:46.879Z,10.01
2023-01-07T07:01:13.663Z,9.98
2023-01-07T07:03:40.381Z,9.97
2023-01-07T07:06:07.476Z,9.99
2023-01-07T07:08:34.098Z,10.02
2023-01-07T07:11:00.953Z,10.04
2023-01-07T07:13:28.266Z,9.96
2023-01-07T07:15:54.956Z,9.93
2023-01-07T07:18:21.764Z,9.97
2023-01-07T07:20:49.568Z,9.98
2023-01-07T07:23:16.687Z,9.96
2023-01-07T07:25:43.688Z,9.94
2023-01-07T07:28:10.879Z,9.97
2023-01-07T07:30:45.478Z,9.95
2023-01-07T07:33:15.303Z,9.95
2023-01-07T07:35:42.379Z,9.96
2023-01-07T07:38:09.455Z,9.96
2023-01-07T07:40:36.299Z,9.84
2023-01-07T07:43:11.715Z,9.90
2023-01-07T07:45:40.516Z,9.86
2023-01-07T07:48:11.004Z,9.86
2023-01-07T07:50:37.882Z,9.85
2023-01-07T07:53:05.232Z,9.85
2023-01-07T07:55:32.028Z,9.83
2023-01-07T07:57:58.733Z,9.80
2023-01-07T08:00:25.596Z,9.76
2023-01-07T08:02:52.628Z,9.78
2023-01-07T08:05:19.351Z,9.78
2023-01-07T08:07:45.956Z,9.78
2023-01-07T08:10:12.584Z,9.81
2023-01-07T08:12:39.785Z,9.84
2023-01-07T08:15:07.451Z,9.89
2023-01-07T08:17:34.467Z,9.91
2023-01-07T08:20:01.115Z,9.92
2023-01-07T08:22:27.825Z,9.96
2023-01-07T08:24:54.646Z,10.01
2023-01-07T08:27:21.380Z,9.98
2023-01-07T08:29:47.975Z,10.04
2023-01-07T08:32:15.128Z,10.08
2023-01-07T08:34:41.754Z,10.09
2023-01-07T08:37:08.616Z,10.07
2023-01-07T08:39:35.231Z,10.04
2023-01-07T08:42:02.590Z,10.10
2023-01-07T08:44:29.287Z,10.01
2023-01-07T08:46:56.075Z,9.99
2023-01-07T08:49:22.971Z,10.05
2023-01-07T08:51:49.693Z,10.06
2023-01-07T08:54:16.610Z,10.09
2023-01-07T08:56:43.456Z,10.10
2023-01-07T08:59:10.101Z,10.05
2023-01-07T09:01:37.133Z,10.01
2023-01-07T09:04:03.947Z,10.10
2023-01-07T09:06:30.793Z,10.04
2023-01-07T09:08:57.865Z,10.12
2023-01-07T09:11:24.615Z,10.07
2023-01-07T09:13:51.512Z,10.08
2023-01-07T09:16:18.315Z,10.11
2023-01-07T09:18:45.654Z,10.11
2023-01-07T09:21:12.326Z,10.08
2023-01-07T09:23:40.610Z,10.09
2023-01-07T09:26:08.027Z,10.16
2023-01-07T09:28:34.883Z,10.14
2023-01-07T09:31:02.265Z,10.15
2023-01-07T09:33:29.270Z,10.18
2023-01-07T09:35:56.223Z,10.20
2023-01-07T09:38:22.839Z,10.15
2023-01-07T09:40:49.691Z,10.17
2023-01-07T09:44:00.388Z,10.25
2023-01-07T09:46:17.126Z,10.24
2023-01-07T09:48:51.795Z,10.29
2023-01-07T09:51:29.260Z,10.31
2023-01-07T09:53:59.849Z,10.34
2023-01-07T09:56:31.642Z,10.34
2023-01-07T09:59:00.993Z,10.41
2023-01-07T10:01:46.496Z,10.30
2023-01-07T10:04:22.909Z,10.30
2023-01-07T10:07:13.386Z,10.25
2023-01-07T10:10:08.165Z,10.27
2023-01-07T10:13:04.586Z,10.28
2023-01-07T10:15:58.003Z,10.26
2023-01-07T10:19:03.819Z,10.24
2023-01-07T10:21:39.316Z,10.24
2023-01-07T10:24:12.875Z,10.23
2023-01-07T10:26:41.900Z,10.32
2023-01-07T10:29:14.787Z,10.33
2023-01-07T10:31:42.401Z,10.35
2023-01-07T10:34:26.269Z,10.38
2023-01-07T10:37:06.796Z,10.47
2023-01-07T10:39:46.807Z,10.45
2023-01-07T10:42:19.094Z,10.47
2023-01-07T10:44:57.823Z,10.43
2023-01-07T10:47:56.930Z,10.44
2023-01-07T10:50:44.848Z,10.46
2023-01-07T10:53:39.377Z,10.48
2023-01-07T10:56:17.628Z,10.43
2023-01-07T10:58:45.800Z,10.44
2023-01-07T11:01:23.711Z,10.45
2023-01-07T11:03:56.076Z,10.50
2023-01-07T11:06:44.943Z,10.57
2023-01-07T11:09:19.379Z,10.53
2023-01-07T11:11:46.629Z,10.54
2023-01-07T11:14:21.452Z,10.51
2023-01-07T11:16:56.860Z,10.56
2023-01-07T11:19:43.092Z,10.52
2023-01-07T11:22:31.704Z,10.55
2023-01-07T11:24:59.920Z,10.49
2023-01-07T11:27:30.696Z,10.50
2023-01-07T11:30:00.985Z,10.55
2023-01-07T11:32:32.467Z,10.51
2023-01-07T11:35:01.752Z,10.54
2023-01-07T11:37:42.882Z,10.56
2023-01-07T11:40:35.438Z,10.55
2023-01-07T11:43:36.400Z,10.49
2023-01-07T11:46:20.226Z,10.49
2023-01-07T11:48:50.456Z,10.50
2023-01-07T11:51:19.025Z,10.52
2023-01-07T11:53:58.204Z,10.53
2023-01-07T11:56:28.230Z,10.40
2023-01-07T11:59:15.130Z,10.46
2023-01-07T12:01:53.737Z,10.53
2023-01-07T12:04:36.589Z,10.46
2023-01-07T12:07:12.459Z,10.49
2023-01-07T12:09:41.797Z,10.44
2023-01-07T12:12:35.005Z,10.41
2023-01-07T12:15:19.919Z,10.36
2023-01-07T12:17:58.278Z,10.34
2023-01-07T12:20:51.325Z,10.31
2023-01-07T12:23:51.411Z,10.36
2023-01-07T12:26:27.474Z,10.40
2023-01-07T12:29:27.354Z,10.38
2023-01-07T12:32:36.698Z,10.35
2023-01-07T12:35:16.472Z,10.30
2023-01-07T12:37:54.073Z,10.28
2023-01-07T12:40:31.420Z,10.23
2023-01-07T12:43:21.953Z,10.21
2023-01-07T12:45:53.421Z,10.24
2023-01-07T12:48:47.190Z,10.20
2023-01-07T12:51:21.268Z,10.20
2023-01-07T12:53:52.194Z,10.23
2023-01-07T12:56:30.025Z,10.22
2023-01-07T12:59:04.875Z,10.17
2023-01-07T13:01:42.699Z,10.14
2023-01-07T13:04:39.982Z,10.20
2023-01-07T13:07:41.088Z,10.25
2023-01-07T13:10:21.609Z,10.32
2023-01-07T13:12:49.580Z,10.27
2023-01-07T13:15:36.327Z,10.26
2023-01-07T13:18:16.541Z,10.28
2023-01-07T13:21:24.611Z,10.24
2023-01-07T13:24:20.138Z,10.26
2023-01-07T13:26:58.101Z,10.09
2023-01-07T13:29:58.823Z,10.00
2023-01-07T13:32:54.482Z,10.08
2023-01-07T13:35:48.101Z,10.17
2023-01-07T13:38:30.978Z,10.12
2023-01-07T13:41:31.978Z,10.03
2023-01-07T13:44:15.027Z,10.00
2023-01-07T13:46:45.049Z,10.14
2023-01-07T13:49:30.141Z,10.11
2023-01-07T13:52:20.760Z,10.10
2023-01-07T13:55:24.489Z,10.27
2023-01-07T13:57:51.205Z,10.21
2023-01-07T14:00:38.260Z,10.21
2023-01-07T14:03:05.624Z,10.23
2023-01-07T14:05:32.832Z,10.18
2023-01-07T14:08:01.550Z,10.18
2023-01-07T14:10:34.504Z,10.14
2023-01-07T14:13:12.590Z,10.16
2023-01-07T14:15:58.457Z,10.14
2023-01-07T14:19:04.623Z,10.18
2023-01-07T14:21:57.403Z,10.24
2023-01-07T14:25:05.941Z,10.20
2023-01-07T14:28:04.611Z,10.20
2023-01-07T14:30:36.453Z,10.19
2023-01-07T14:33:08.180Z,10.23
2023-01-07T14:35:40.500Z,10.24
2023-01-07T14:38:55.755Z,10.19
2023-01-07T14:41:24.532Z,10.19
2023-01-07T14:44:03.392Z,10.23
2023-01-07T14:46:49.424Z,10.35
2023-01-07T14:49:30.551Z,10.27
2023-01-07T14:52:10.493Z,10.25
2023-01-07T14:55:23.026Z,10.20
2023-01-07T14:58:19.894Z,10.09
2023-01-07T15:01:31.460Z,10.20
2023-01-07T15:04:42.929Z,10.08
2023-01-07T15:07:16.565Z,10.21
2023-01-07T15:10:05.695Z,10.16
2023-01-07T15:12:54.707Z,10.14
2023-01-07T15:15:43.942Z,10.13
2023-01-07T15:18:11.980Z,10.18
2023-01-07T15:21:12.031Z,10.13
2023-01-07T15:27:44.199Z,10.10
2023-01-07T15:30:49.560Z,10.12
2023-01-07T15:33:37.542Z,10.01
2023-01-07T15:36:05.817Z,10.09
2023-01-07T15:38:50.338Z,10.08
2023-01-07T15:41:24.020Z,10.03
2023-01-07T15:43:51.325Z,10.04
2023-01-07T15:46:18.300Z,10.00
2023-01-07T15:48:45.294Z,9.97
2023-01-07T15:51:18.805Z,9.97
2023-01-07T15:53:54.358Z,9.97
2023-01-07T15:56:22.463Z,9.99
2023-01-07T15:58:49.241Z,9.95
2023-01-07T16:01:18.736Z,9.94
2023-01-07T16:03:47.012Z,10.02
2023-01-07T16:06:47.126Z,10.04
2023-01-07T16:09:19.317Z,10.02
2023-01-07T16:11:46.397Z,10.00
2023-01-07T16:14:22.453Z,9.95
2023-01-07T16:17:04.354Z,9.93
2023-01-07T16:19:35.097Z,9.95
2023-01-07T16:22:03.487Z,9.95
2023-01-07T16:24:30.145Z,9.89
2023-01-07T16:27:05.309Z,9.88
2023-01-07T16:29:37.261Z,9.86
2023-01-07T16:32:07.257Z,9.73
2023-01-07T16:34:54.196Z,9.80
2023-01-07T16:37:20.959Z,9.80
2023-01-07T16:39:51.515Z,9.82
2023-01-07T16:42:21.095Z,9.81
2023-01-07T16:44:59.337Z,9.88
2023-01-07T16:47:27.901Z,9.80
2023-01-07T16:50:40.237Z,9.78
2023-01-07T16:53:21.926Z,9.85
2023-01-07T16:56:13.273Z,9.86
2023-01-07T16:58:43.194Z,9.88
2023-01-07T17:01:10.718Z,9.86
2023-01-07T17:03:54.865Z,9.86
2023-01-07T17:06:38.508Z,9.82
2023-01-07T17:09:05.479Z,9.74
2023-01-07T17:11:36.418Z,9.78
2023-01-07T17:14:03.187Z,9.72
2023-01-07T17:16:33.812Z,9.73
2023-01-07T17:19:26.328Z,9.79
2023-01-07T17:21:54.847Z,9.71
2023-01-07T17:24:28.741Z,9.70
2023-01-07T17:26:57.726Z,9.72
2023-01-07T17:29:30.361Z,9.75
2023-01-07T17:31:58.273Z,9.72
2023-01-07T17:34:25.326Z,9.67
2023-01-07T17:36:52.805Z,9.70
2023-01-07T17:39:19.645Z,9.79
2023-01-07T17:42:05.125Z,9.74
2023-01-07T17:44:32.880Z,9.72
2023-01-07T17:46:59.678Z,9.70
2023-01-07T17:49:27.304Z,9.68
2023-01-07T17:51:54.883Z,9.67
2023-01-07T17:54:25.870Z,9.57
2023-01-07T17:56:53.424Z,9.62
2023-01-07T17:59:22.572Z,9.63
2023-01-07T18:01:51.187Z,9.62
2023-01-07T18:04:18.372Z,9.64
2023-01-07T18:06:45.680Z,9.57
2023-01-07T18:09:13.947Z,9.50
2023-01-07T18:12:03.165Z,9.38
2023-01-07T18:14:30.209Z,9.50
2023-01-07T18:16:57.211Z,9.53
2023-01-07T18:19:24.112Z,9.41
2023-01-07T18:21:51.038Z,9.44
2023-01-07T18:24:21.569Z,9.40
2023-01-07T18:26:49.149Z,9.49
2023-01-07T18:29:16.926Z,9.36
2023-01-07T18:31:44.648Z,9.33
2023-01-07T18:34:13.954Z,9.33
2023-01-07T18:36:45.761Z,9.38
2023-01-07T18:39:19.620Z,9.39
2023-01-07T18:41:48.919Z,9.25
2023-01-07T18:44:16.776Z,9.32
2023-01-07T18:46:43.516Z,9.25
2023-01-07T18:49:11.548Z,9.17
2023-01-07T18:51:38.676Z,9.18
2023-01-07T18:54:07.273Z,9.14
2023-01-07T18:56:37.953Z,9.13
2023-01-07T18:59:05.807Z,9.07
2023-01-07T19:01:32.874Z,9.14
2023-01-07T19:03:59.941Z,9.04
2023-01-07T19:06:29.479Z,9.05
2023-01-07T19:08:57.175Z,9.10
2023-01-07T19:11:24.733Z,9.09
2023-01-07T19:13:51.370Z,9.08
2023-01-07T19:16:18.005Z,9.00
2023-01-07T19:18:46.521Z,8.94
2023-01-07T19:21:13.499Z,8.85
2023-01-07T19:23:40.582Z,8.93
2023-01-07T19:26:08.909Z,8.81
2023-01-07T19:28:36.470Z,8.81
2023-01-07T19:31:07.382Z,8.84
2023-01-07T19:33:34.942Z,8.79
2023-01-07T19:36:10.527Z,8.80
2023-01-07T19:38:41.818Z,8.71
2023-01-07T19:41:14.422Z,8.80
2023-01-07T19:43:41.696Z,8.67
2023-01-07T19:46:09.684Z,8.76
2023-01-07T19:48:36.373Z,8.66
2023-01-07T19:51:06.190Z,8.59
2023-01-07T19:53:34.178Z,8.62
2023-01-07T19:56:09.324Z,8.53
2023-01-07T19:58:37.561Z,8.50
2023-01-07T20:01:19.766Z,8.49
2023-01-07T20:03:47.122Z,8.43
2023-01-07T20:06:16.071Z,8.40
2023-01-07T20:08:43.009Z,8.43
2023-01-07T20:11:10.568Z,8.50
2023-01-07T20:13:38.556Z,8.47
2023-01-07T20:16:14.164Z,8.40
2023-01-07T20:18:42.904Z,8.37
2023-01-07T20:21:11.641Z,8.37
2023-01-07T20:23:40.781Z,8.43
2023-01-07T20:26:11.980Z,8.46
2023-01-07T20:28:39.016Z,8.48
2023-01-07T20:31:13.329Z,8.41
2023-01-07T20:33:41.212Z,8.42
2023-01-07T20:36:11.403Z,8.40
2023-01-07T20:38:39.292Z,8.39
2023-01-07T20:41:07.365Z,8.33
2023-01-07T20:43:35.542Z,8.22
2023-01-07T20:46:04.545Z,8.36
2023-01-07T20:48:32.023Z,8.30
2023-01-07T20:51:00.588Z,8.34
2023-01-07T20:53:28.910Z,8.36
2023-01-07T20:55:57.444Z,8.40
2023-01-07T20:58:24.061Z,8.40
2023-01-07T21:00:51.163Z,8.41
2023-01-07T21:03:18.013Z,8.38
2023-01-07T21:05:46.309Z,8.36
2023-01-07T21:08:13.347Z,8.33
2023-01-07T21:10:40.366Z,8.33
2023-01-07T21:13:07.588Z,8.30
2023-01-07T21:15:36.556Z,8.43
2023-01-07T21:18:03.760Z,8.34
2023-01-07T21:20:31.351Z,8.30
2023-01-07T21:22:58.007Z,8.30
2023-01-07T21:25:24.607Z,8.43
2023-01-07T21:27:51.467Z,8.29
2023-01-07T21:30:18.652Z,8.23
2023-01-07T21:32:45.615Z,8.13
2023-01-07T21:35:12.476Z,8.22
2023-01-07T21:37:39.420Z,8.05
2023-01-07T21:40:08.771Z,8.09
2023-01-07T21:42:36.773Z,8.04
2023-01-07T21:45:05.293Z,8.05
2023-01-07T21:47:32.941Z,8.17
2023-01-07T21:49:59.743Z,8.18
2023-01-07T21:52:26.333Z,8.28
2023-01-07T21:54:53.191Z,8.12
2023-01-07T21:57:20.061Z,8.05
2023-01-07T21:59:46.840Z,7.92
2023-01-07T22:02:14.124Z,7.89
2023-01-07T22:04:41.140Z,7.88
2023-01-07T22:07:18.218Z,7.87
2023-01-07T22:09:45.531Z,7.77
2023-01-07T22:12:12.680Z,7.72
2023-01-07T22:14:39.408Z,7.75
2023-01-07T22:17:07.302Z,7.76
2023-01-07T22:19:34.190Z,7.89
2023-01-07T22:22:01.740Z,7.90
2023-01-07T22:24:28.584Z,7.78
2023-01-07T22:26:55.486Z,7.76
2023-01-07T22:29:22.349Z,7.71
2023-01-07T22:31:52.842Z,7.70
2023-01-07T22:34:19.638Z,7.62
2023-01-07T22:36:50.030Z,7.61
2023-01-07T22:39:40.648Z,7.57
2023-01-07T22:42:20.055Z,7.45
2023-01-07T22:44:52.603Z,7.51
2023-01-07T22:47:24.780Z,7.42
2023-01-07T22:49:52.567Z,7.31
2023-01-07T22:52:20.636Z,7.17
2023-01-07T22:54:47.300Z,7.26
2023-01-07T22:57:14.184Z,7.37
2023-01-07T22:59:40.734Z,7.23
2023-01-07T23:02:08.450Z,7.15
2023-01-07T23:04:35.572Z,7.08
2023-01-07T23:07:02.734Z,7.08
2023-01-07T23:09:29.452Z,7.19
2023-01-07T23:11:59.610Z,7.20
2023-01-07T23:14:27.819Z,7.17
2023-01-07T23:16:55.467Z,7.19
2023-01-07T23:19:22.822Z,7.20
2023-01-07T23:21:53.230Z,7.20
2023-01-07T23:24:21.294Z,7.24
2023-01-07T23:26:50.159Z,7.22
2023-01-07T23:29:17.652Z,7.20
2023-01-07T23:31:44.580Z,7.34
2023-01-07T23:34:11.808Z,7.42
2023-01-07T23:36:39.258Z,7.47
2023-01-07T23:39:06.744Z,7.38
2023-01-07T23:41:33.490Z,7.35
2023-01-07T23:44:00.185Z,7.44
2023-01-07T23:46:27.016Z,7.36
2023-01-07T23:48:53.955Z,7.42
2023-01-07T23:51:21.351Z,7.30
2023-01-07T23:53:48.184Z,7.34
2023-01-07T23:56:18.807Z,7.49
2023-01-07T23:58:46.082Z,7.44
